Time;durP1;ratioP1;P1;durP2;ratioP2;P2;SDS_P1;SDS_P2;PMS_P1;PMS_P2;Temp;Humidity;BMP_temperature;BMP_pressure;BME280_temperature;BME280_humidity;BME280_pressure;Samples;Min_cycle;Max_cycle;Signal;HPM_P1;HPM_P2
2022/01/31 03:46:05;;;;;;;23.00;3.90;;;5.80;61.00;;;;;;5339784;24;20232;-83
2022/01/31 03:48:32;;;;;;;28.85;4.40;;;5.80;60.40;;;;;;4781758;30;20335;-82
2022/01/31 03:51:02;;;;;;;25.38;3.92;;;5.80;60.50;;;;;;4778476;30;20238;-82
2022/01/31 03:53:31;;;;;;;24.20;3.97;;;5.80;60.50;;;;;;4774512;30;20027;-83
2022/01/31 03:55:57;;;;;;;31.08;5.32;;;5.80;60.80;;;;;;4773687;30;20037;-83
2022/01/31 03:58:24;;;;;;;20.52;4.07;;;5.90;60.30;;;;;;4773793;30;20035;-83
2022/01/31 04:01:00;;;;;;;24.83;4.72;;;5.90;60.50;;;;;;4785529;29;20230;-83
2022/01/31 04:03:26;;;;;;;21.17;4.78;;;5.80;60.80;;;;;;4778020;30;20078;-83
2022/01/31 04:05:52;;;;;;;20.08;3.90;;;5.90;61.50;;;;;;4795090;30;20253;-83
2022/01/31 04:08:19;;;;;;;23.95;3.53;;;5.90;61.00;;;;;;4762152;30;20047;-83
2022/01/31 04:10:45;;;;;;;20.23;4.63;;;5.80;60.50;;;;;;4779197;30;20265;-83
2022/01/31 04:13:11;;;;;;;25.63;4.15;;;5.80;60.90;;;;;;4772998;30;20051;-83
2022/01/31 04:15:39;;;;;;;20.40;3.57;;;5.80;60.90;;;;;;4752505;30;20075;-83
2022/01/31 04:18:05;;;;;;;25.73;3.78;;;5.80;61.20;;;;;;4800280;29;20096;-83
2022/01/31 04:20:31;;;;;;;26.23;5.03;;;5.70;61.00;;;;;;4781525;30;20036;-83
2022/01/31 04:23:06;;;;;;;23.90;3.95;;;5.70;61.10;;;;;;4787618;30;20059;-83
2022/01/31 04:28:19;;;;;;;23.00;4.68;;;5.70;61.30;;;;;;4791922;30;20047;-83
2022/01/31 04:33:31;;;;;;;23.42;4.35;;;5.70;61.40;;;;;;4779655;30;20040;-83
2022/01/31 04:35:57;;;;;;;21.75;4.30;;;5.70;61.50;;;;;;4730277;30;20043;-83
2022/01/31 04:38:23;;;;;;;22.23;4.35;;;5.70;61.50;;;;;;4724334;30;20408;-83
2022/01/31 04:40:49;;;;;;;19.80;4.10;;;5.70;61.20;;;;;;4735029;30;20052;-83
2022/01/31 04:43:15;;;;;;;27.98;4.55;;;5.70;61.50;;;;;;4739248;30;20135;-83
2022/01/31 04:45:47;;;;;;;15.45;3.70;;;5.70;61.30;;;;;;4737881;30;20276;-83
2022/01/31 04:48:14;;;;;;;23.10;3.67;;;5.60;61.40;;;;;;4758768;30;20051;-83
2022/01/31 04:50:40;;;;;;;26.65;4.72;;;5.70;61.50;;;;;;4765584;30;20089;-83
2022/01/31 04:53:06;;;;;;;15.48;3.53;;;5.60;61.50;;;;;;4750897;30;20157;-82
2022/01/31 04:55:31;;;;;;;22.98;5.10;;;5.60;62.00;;;;;;4750821;30;20036;-83
2022/01/31 04:57:57;;;;;;;22.77;3.58;;;5.60;62.50;;;;;;4762303;30;20040;-82
2022/01/31 05:00:24;;;;;;;22.38;4.10;;;5.60;62.10;;;;;;4750462;30;20110;-82
2022/01/31 05:02:50;;;;;;;25.13;4.63;;;5.60;62.60;;;;;;4765947;30;20044;-82
2022/01/31 05:05:16;;;;;;;20.30;3.88;;;5.50;63.50;;;;;;4751771;30;20050;-82
2022/01/31 05:07:41;;;;;;;22.83;4.65;;;5.50;64.40;;;;;;4766068;30;20236;-82
2022/01/31 05:10:08;;;;;;;25.63;4.20;;;5.50;65.60;;;;;;4767984;30;20055;-82
2022/01/31 05:12:33;;;;;;;29.13;4.60;;;5.50;65.10;;;;;;4766068;30;20042;-82
2022/01/31 05:14:59;;;;;;;23.65;4.72;;;5.40;65.60;;;;;;4778235;30;20043;-82
2022/01/31 05:17:25;;;;;;;16.63;4.22;;;5.40;66.40;;;;;;4787920;30;20349;-83
2022/01/31 05:19:50;;;;;;;24.52;3.92;;;5.40;67.10;;;;;;4783805;30;20102;-84
2022/01/31 05:22:16;;;;;;;18.60;4.10;;;5.40;67.10;;;;;;4768441;30;20039;-82
2022/01/31 05:24:42;;;;;;;16.33;3.88;;;5.40;67.50;;;;;;4765539;30;20046;-83
2022/01/31 05:27:07;;;;;;;19.25;3.72;;;5.30;68.00;;;;;;4774273;30;20046;-82
2022/01/31 05:29:33;;;;;;;19.85;4.18;;;5.30;68.10;;;;;;4797773;30;20350;-82
2022/01/31 05:31:59;;;;;;;19.27;4.20;;;5.30;68.40;;;;;;4798290;30;20047;-82
2022/01/31 05:34:25;;;;;;;30.55;6.00;;;5.30;68.50;;;;;;4799117;29;20051;-83
2022/01/31 05:36:56;;;;;;;25.00;4.35;;;5.30;69.00;;;;;;4777314;30;20053;-82
2022/01/31 05:39:25;;;;;;;28.42;5.25;;;5.30;69.50;;;;;;4798092;30;20077;-82
2022/01/31 05:41:52;;;;;;;26.35;4.95;;;5.20;70.30;;;;;;4785726;30;20047;-81
2022/01/31 05:44:18;;;;;;;21.77;5.20;;;5.20;69.60;;;;;;4787195;30;20059;-84
2022/01/31 05:46:44;;;;;;;18.23;4.43;;;5.20;70.60;;;;;;4796544;30;20055;-82
2022/01/31 05:49:10;;;;;;;32.20;4.78;;;5.20;70.30;;;;;;4768123;30;20100;-84
2022/01/31 05:51:45;;;;;;;28.85;4.60;;;5.20;70.30;;;;;;4788053;30;20342;-83
2022/01/31 05:54:11;;;;;;;22.10;4.07;;;5.20;70.50;;;;;;4780231;30;20040;-83
2022/01/31 05:56:36;;;;;;;31.90;4.03;;;5.20;71.20;;;;;;4796432;29;20043;-83
2022/01/31 05:59:02;;;;;;;21.30;3.65;;;5.20;71.80;;;;;;4768417;30;20054;-82
2022/01/31 06:01:28;;;;;;;24.58;3.72;;;5.20;71.70;;;;;;4783134;30;20047;-83
2022/01/31 06:03:54;;;;;;;18.10;3.92;;;5.10;71.50;;;;;;4782678;30;20050;-84
2022/01/31 06:06:19;;;;;;;28.42;4.57;;;5.20;71.40;;;;;;4753039;30;20039;-82
2022/01/31 06:08:45;;;;;;;21.15;3.92;;;5.20;71.70;;;;;;4770513;30;20031;-83
2022/01/31 06:11:11;;;;;;;20.98;3.72;;;5.20;71.30;;;;;;4755961;30;20035;-83
2022/01/31 06:13:37;;;;;;;20.10;3.42;;;5.30;71.10;;;;;;4782579;30;20062;-82
2022/01/31 06:16:03;;;;;;;28.05;4.18;;;5.30;71.30;;;;;;4746671;30;20119;-83
2022/01/31 06:18:29;;;;;;;20.35;3.58;;;5.30;71.30;;;;;;4752239;30;20101;-82
2022/01/31 06:20:55;;;;;;;28.23;5.97;;;5.30;71.20;;;;;;4797418;29;20054;-83
2022/01/31 06:23:21;;;;;;;26.95;5.00;;;5.30;71.10;;;;;;4755323;30;20067;-83
2022/01/31 06:25:48;;;;;;;20.45;4.75;;;5.30;71.10;;;;;;4752934;30;20065;-83
2022/01/31 06:28:14;;;;;;;23.70;3.83;;;5.40;71.00;;;;;;4781196;30;20054;-82
2022/01/31 06:30:40;;;;;;;19.90;3.80;;;5.40;70.90;;;;;;4776380;30;20234;-83
2022/01/31 06:33:05;;;;;;;22.80;4.03;;;5.50;70.70;;;;;;4770778;30;20068;-82
2022/01/31 06:35:31;;;;;;;20.15;3.72;;;5.50;71.30;;;;;;4764626;30;20247;-83
2022/01/31 06:37:57;;;;;;;19.23;4.10;;;5.50;70.80;;;;;;4767459;30;20032;-83
2022/01/31 06:40:23;;;;;;;31.38;4.22;;;5.50;70.50;;;;;;4764301;30;20042;-82
2022/01/31 06:42:49;;;;;;;17.60;3.97;;;5.60;70.60;;;;;;4780804;30;20319;-82
2022/01/31 06:45:18;;;;;;;15.13;3.60;;;5.60;70.60;;;;;;4788744;30;20019;-82
2022/01/31 06:47:43;;;;;;;16.23;3.65;;;5.50;70.80;;;;;;4790538;30;20047;-82
2022/01/31 06:50:09;;;;;;;18.60;3.65;;;5.60;70.60;;;;;;4764629;30;20043;-81
2022/01/31 06:52:37;;;;;;;20.80;4.10;;;5.60;70.70;;;;;;4775130;30;20038;-82
2022/01/31 06:55:06;;;;;;;24.10;4.40;;;5.60;70.70;;;;;;4792655;30;20024;-81
2022/01/31 06:57:33;;;;;;;17.23;4.05;;;5.60;70.70;;;;;;4790637;30;20019;-81
2022/01/31 07:00:01;;;;;;;24.85;4.10;;;5.60;70.80;;;;;;4794764;30;20043;-82
2022/01/31 07:02:28;;;;;;;16.60;4.05;;;5.70;70.60;;;;;;4761819;30;20027;-82
2022/01/31 07:04:54;;;;;;;25.38;3.95;;;5.70;70.50;;;;;;4799041;30;20027;-81
2022/01/31 07:07:19;;;;;;;12.23;3.13;;;5.80;70.20;;;;;;4782827;30;20112;-82
2022/01/31 07:09:45;;;;;;;20.63;3.80;;;5.80;70.40;;;;;;4769039;30;20055;-82
2022/01/31 07:12:12;;;;;;;23.27;4.95;;;5.80;70.40;;;;;;4763577;30;20043;-81
2022/01/31 07:14:38;;;;;;;;;;;5.80;70.50;;;;;;4746168;30;20043;-82
2022/01/31 07:17:06;;;;;;;18.80;3.50;;;5.80;70.30;;;;;;4794072;30;20134;-82
2022/01/31 07:19:35;;;;;;;10.95;2.95;;;5.80;70.00;;;;;;4791142;30;20035;-83
2022/01/31 07:22:03;;;;;;;17.02;3.65;;;5.90;70.20;;;;;;4763762;30;20094;-83
2022/01/31 07:27:02;;;;;;;13.38;3.85;;;5.90;70.20;;;;;;4784646;30;20174;-82
2022/01/31 07:29:29;;;;;;;17.88;3.65;;;5.90;70.10;;;;;;4779074;30;20046;-82
2022/01/31 07:31:56;;;;;;;23.30;3.92;;;6.00;70.10;;;;;;4747524;30;20084;-82
2022/01/31 07:34:22;;;;;;;;;;;6.00;69.90;;;;;;4789340;30;20059;-82
2022/01/31 07:36:49;;;;;;;29.00;5.28;;;6.10;69.90;;;;;;4779493;30;19921;-82
2022/01/31 07:39:15;;;;;;;16.80;3.80;;;6.20;69.80;;;;;;4788304;30;20055;-82
2022/01/31 07:41:42;;;;;;;23.88;4.18;;;6.30;69.50;;;;;;4763064;30;20035;-82
2022/01/31 07:44:09;;;;;;;22.17;3.60;;;6.30;68.90;;;;;;4790276;30;20035;-83
2022/01/31 07:46:35;;;;;;;;;;;6.40;69.00;;;;;;4772076;30;20063;-82
2022/01/31 07:49:01;;;;;;;20.80;3.90;;;6.40;68.70;;;;;;4777007;30;20253;-82
2022/01/31 07:51:27;;;;;;;24.25;4.53;;;6.40;68.70;;;;;;4760312;30;20071;-81
2022/01/31 07:53:53;;;;;;;25.58;3.88;;;6.50;68.80;;;;;;4747101;30;20039;-82
2022/01/31 07:56:20;;;;;;;20.42;4.20;;;6.50;68.70;;;;;;4760787;30;20028;-81
2022/01/31 07:58:46;;;;;;;;;;;6.60;68.40;;;;;;4776892;30;20035;-81
2022/01/31 08:01:12;;;;;;;20.67;3.65;;;6.60;68.40;;;;;;4786812;30;19973;-81
2022/01/31 08:03:38;;;;;;;19.40;3.97;;;6.60;68.40;;;;;;4764073;30;20039;-81
2022/01/31 08:06:04;;;;;;;19.08;4.78;;;6.60;68.10;;;;;;4783204;30;20042;-82
2022/01/31 08:08:31;;;;;;;18.03;3.40;;;6.60;68.50;;;;;;4763049;30;20058;-82
2022/01/31 08:10:58;;;;;;;16.08;3.42;;;6.60;68.30;;;;;;4763780;30;20046;-82
2022/01/31 08:13:27;;;;;;;;;;;6.50;68.50;;;;;;4776742;30;20098;-83
2022/01/31 08:16:09;;;;;;;17.15;3.22;;;6.60;68.80;;;;;;4780984;30;19920;-82
2022/01/31 08:18:40;;;;;;;17.42;3.83;;;6.60;68.40;;;;;;4787080;30;20055;-82
2022/01/31 08:21:12;;;;;;;12.68;3.28;;;6.70;67.90;;;;;;4764946;30;20046;-82
2022/01/31 08:23:38;;;;;;;23.70;4.63;;;6.70;68.40;;;;;;4773265;30;20201;-82
2022/01/31 08:26:07;;;;;;;26.02;4.50;;;6.70;68.40;;;;;;4759910;30;20044;-82
2022/01/31 08:28:57;;;;;;;25.15;4.40;;;6.60;68.00;;;;;;4774806;30;20043;-83
2022/01/31 08:36:16;;;;;;;20.35;4.70;;;6.70;68.90;;;;;;4787869;30;20335;-82
2022/01/31 08:38:44;;;;;;;24.88;5.25;;;6.80;68.80;;;;;;4777406;30;20388;-82
2022/01/31 08:41:12;;;;;;;26.70;5.40;;;6.80;68.60;;;;;;4780501;30;20051;-82
2022/01/31 08:43:39;;;;;;;33.80;5.13;;;6.90;68.50;;;;;;4752180;30;20244;-82
2022/01/31 08:46:06;;;;;;;20.77;6.20;;;6.80;68.60;;;;;;4768351;30;20070;-82
2022/01/31 08:48:32;;;;;;;22.52;5.53;;;6.80;68.50;;;;;;4775568;30;20100;-82
2022/01/31 08:50:59;;;;;;;32.75;7.30;;;6.80;68.40;;;;;;4750967;30;20123;-82
2022/01/31 08:53:25;;;;;;;32.25;6.35;;;6.80;68.40;;;;;;4774270;30;20040;-82
2022/01/31 08:56:01;;;;;;;20.20;4.25;;;6.80;68.20;;;;;;4771569;30;20035;-82
2022/01/31 08:58:28;;;;;;;17.00;4.43;;;6.90;68.10;;;;;;4761872;30;20035;-82
2022/01/31 09:01:04;;;;;;;28.07;5.47;;;7.00;67.90;;;;;;4763499;30;20293;-82
2022/01/31 09:06:04;;;;;;;25.98;5.05;;;6.90;67.80;;;;;;4772384;30;20382;-82
2022/01/31 09:08:30;;;;;;;;;;;7.00;68.20;;;;;;4750507;30;20278;-82
2022/01/31 09:10:56;;;;;;;26.53;6.23;;;6.90;67.20;;;;;;4791293;30;19917;-82
2022/01/31 09:13:22;;;;;;;29.27;5.88;;;6.90;68.00;;;;;;4782433;29;20040;-83
2022/01/31 09:15:49;;;;;;;23.13;5.30;;;7.00;68.20;;;;;;4779340;30;20047;-82
2022/01/31 09:18:15;;;;;;;22.75;4.72;;;7.10;67.70;;;;;;4781695;30;20047;-83
2022/01/31 09:20:40;;;;;;;32.97;5.63;;;7.10;68.10;;;;;;4766312;30;20039;-83
2022/01/31 09:23:06;;;;;;;25.67;4.93;;;7.20;68.10;;;;;;4788909;29;20036;-84
2022/01/31 09:25:33;;;;;;;18.08;4.53;;;7.40;67.90;;;;;;4765227;30;20213;-82
2022/01/31 09:28:00;;;;;;;31.02;5.25;;;7.40;67.70;;;;;;4780176;30;20274;-83
2022/01/31 09:30:27;;;;;;;26.42;4.85;;;7.50;67.50;;;;;;4782153;30;20208;-83
2022/01/31 09:32:58;;;;;;;36.42;8.18;;;7.50;67.40;;;;;;4785302;30;20027;-83
2022/01/31 09:35:25;;;;;;;31.13;6.32;;;7.40;67.20;;;;;;4774257;30;20035;-83
2022/01/31 09:37:51;;;;;;;20.17;5.57;;;7.30;67.30;;;;;;4779700;30;20035;-82
2022/01/31 09:40:20;;;;;;;28.77;5.72;;;7.20;67.40;;;;;;4773419;30;20057;-82
2022/01/31 09:46:29;;;;;;;25.30;5.78;;;7.20;67.80;;;;;;4735767;30;20048;-82
2022/01/31 09:48:51;;;;;;;19.80;4.85;;;7.20;67.60;;;;;;4746003;30;20402;-83
2022/01/31 09:51:19;;;;;;;25.38;4.82;;;7.20;67.80;;;;;;4716795;30;20259;-82
2022/01/31 09:53:46;;;;;;;29.70;5.32;;;7.30;67.80;;;;;;4757210;30;20059;-83
2022/01/31 09:56:16;;;;;;;31.85;5.55;;;7.20;67.70;;;;;;4739875;30;20059;-82
2022/01/31 09:58:43;;;;;;;35.13;5.15;;;7.20;67.70;;;;;;4742594;30;20234;-83
2022/01/31 10:01:10;;;;;;;22.97;4.77;;;7.20;67.80;;;;;;4755288;30;20041;-83
2022/01/31 10:03:46;;;;;;;29.60;6.07;;;7.10;68.00;;;;;;4741781;30;20287;-82
2022/01/31 10:06:31;;;;;;;23.47;5.90;;;7.10;68.30;;;;;;4744990;30;20036;-83
2022/01/31 10:09:04;;;;;;;16.58;5.25;;;7.10;68.40;;;;;;4756610;30;20384;-83
2022/01/31 10:11:39;;;;;;;20.92;5.03;;;7.00;68.40;;;;;;4759836;30;20090;-83
2022/01/31 10:17:00;;;;;;;26.23;4.65;;;7.00;69.40;;;;;;4756817;30;20240;-82
2022/01/31 10:19:26;;;;;;;20.63;4.57;;;7.00;69.00;;;;;;4729867;30;20045;-82
2022/01/31 10:21:53;;;;;;;26.50;7.07;;;7.00;68.90;;;;;;4733399;30;20105;-82
2022/01/31 10:24:19;;;;;;;21.25;4.88;;;7.10;69.00;;;;;;4776523;30;20295;-82
2022/01/31 10:26:45;;;;;;;16.75;4.13;;;7.10;68.90;;;;;;4778677;30;20028;-82
2022/01/31 10:29:14;;;;;;;34.70;5.80;;;7.10;68.70;;;;;;4781506;30;20039;-83
2022/01/31 10:32:14;;;;;;;24.23;5.22;;;7.10;68.90;;;;;;4786674;30;20035;-82
2022/01/31 10:34:54;;;;;;;30.63;6.05;;;7.00;68.90;;;;;;4742764;30;20052;-83
2022/01/31 10:37:22;;;;;;;31.30;5.47;;;7.10;69.20;;;;;;4745055;30;20044;-82
2022/01/31 10:53:45;;;;;;;22.73;5.25;;;7.10;69.00;;;;;;4760244;30;20036;-82
2022/01/31 10:56:11;;;;;;;28.00;5.47;;;7.20;69.00;;;;;;4758600;30;20082;-82
2022/01/31 10:58:54;;;;;;;29.50;5.15;;;7.20;69.50;;;;;;4702106;30;20048;-83
2022/01/31 11:01:20;;;;;;;29.48;5.65;;;7.20;69.20;;;;;;4740681;30;20103;-82
2022/01/31 11:03:46;;;;;;;19.08;4.90;;;7.10;69.50;;;;;;4739824;30;20044;-82
2022/01/31 11:06:12;;;;;;;29.13;4.95;;;7.10;69.50;;;;;;4754443;30;20040;-82
2022/01/31 11:08:39;;;;;;;21.20;4.15;;;7.10;69.60;;;;;;4730246;30;20397;-82
2022/01/31 11:11:05;;;;;;;20.27;4.70;;;7.10;69.50;;;;;;4752040;30;20058;-82
2022/01/31 11:13:33;;;;;;;29.33;5.60;;;7.20;69.50;;;;;;4760484;30;20046;-82
2022/01/31 11:16:00;;;;;;;22.30;5.05;;;7.30;69.50;;;;;;4788121;30;20047;-82
2022/01/31 11:18:31;;;;;;;17.70;4.38;;;7.30;70.00;;;;;;4796995;30;20335;-82
2022/01/31 11:21:05;;;;;;;13.68;3.83;;;7.40;70.20;;;;;;4787806;29;20039;-82
2022/01/31 11:23:37;;;;;;;26.58;4.45;;;7.40;69.60;;;;;;4769409;30;20031;-82
2022/01/31 11:26:06;;;;;;;15.13;3.55;;;7.50;70.10;;;;;;4788462;30;20050;-83
2022/01/31 11:28:34;;;;;;;19.67;4.88;;;7.50;70.20;;;;;;4795595;30;20055;-82
2022/01/31 11:31:01;;;;;;;17.45;4.97;;;7.50;69.80;;;;;;4777254;30;20039;-82
2022/01/31 11:33:28;;;;;;;16.83;4.57;;;7.60;70.30;;;;;;4766975;30;20164;-81
2022/01/31 11:35:54;;;;;;;20.25;5.10;;;7.60;69.60;;;;;;4779608;30;20026;-82
2022/01/31 11:38:21;;;;;;;24.10;5.17;;;7.60;69.50;;;;;;4785658;30;20056;-82
2022/01/31 11:40:48;;;;;;;23.55;4.90;;;7.70;69.10;;;;;;4786644;30;20297;-82
2022/01/31 11:43:16;;;;;;;19.45;4.68;;;7.80;69.00;;;;;;4789749;30;20065;-81
2022/01/31 11:45:45;;;;;;;24.65;5.50;;;7.80;68.10;;;;;;4780480;30;20327;-83
2022/01/31 11:48:26;;;;;;;30.10;5.90;;;8.00;67.90;;;;;;4783504;30;20244;-82
2022/01/31 11:50:58;;;;;;;27.77;5.88;;;7.90;67.20;;;;;;4769776;30;20055;-82
2022/01/31 11:53:35;;;;;;;33.72;5.40;;;8.00;67.30;;;;;;4789633;29;20363;-82
2022/01/31 11:56:22;;;;;;;;;;;8.00;67.40;;;;;;4789685;29;20222;-82
2022/01/31 11:58:51;;;;;;;17.98;5.30;;;8.00;67.50;;;;;;4766138;30;19913;-82
2022/01/31 12:01:25;;;;;;;20.98;5.45;;;8.10;67.70;;;;;;4766289;30;20154;-82
2022/01/31 12:03:57;;;;;;;25.20;5.68;;;8.10;67.40;;;;;;4779778;30;20344;-82
2022/01/31 12:06:25;;;;;;;19.20;4.50;;;8.10;68.10;;;;;;4771212;30;20044;-82
2022/01/31 12:09:03;;;;;;;25.00;5.50;;;8.30;68.20;;;;;;4762512;30;20056;-81
2022/01/31 12:11:30;;;;;;;25.75;5.85;;;8.40;67.90;;;;;;4778432;30;20081;-82
2022/01/31 12:14:07;;;;;;;25.63;5.07;;;8.60;67.50;;;;;;4782805;30;20039;-82
2022/01/31 12:16:48;;;;;;;29.92;5.10;;;8.70;67.00;;;;;;4746992;30;20085;-82
2022/01/31 12:22:05;;;;;;;22.63;5.00;;;8.90;67.20;;;;;;4772828;30;20064;-82
2022/01/31 12:24:33;;;;;;;;;;;8.90;67.30;;;;;;4767605;30;20305;-81
2022/01/31 12:27:05;;;;;;;16.63;6.00;;;8.70;68.60;;;;;;4760885;30;19909;-81
2022/01/31 12:29:35;;;;;;;26.30;4.43;;;8.70;69.70;;;;;;4776138;30;20071;-82
2022/01/31 12:32:17;;;;;;;19.65;4.90;;;8.50;71.20;;;;;;4774017;30;20085;-82
2022/01/31 12:34:59;;;;;;;21.58;5.20;;;8.50;72.00;;;;;;4779904;30;20097;-82
2022/01/31 12:37:35;;;;;;;30.25;5.93;;;8.30;72.30;;;;;;4783125;30;20088;-83
2022/01/31 12:40:09;;;;;;;22.92;5.43;;;8.20;73.90;;;;;;4771402;30;20035;-83
2022/01/31 12:42:51;;;;;;;16.40;3.70;;;8.20;75.30;;;;;;4790164;30;20055;-83
2022/01/31 12:45:27;;;;;;;21.02;5.50;;;8.10;77.40;;;;;;4778244;30;20123;-83
2022/01/31 12:48:20;;;;;;;19.08;4.00;;;8.10;79.00;;;;;;4781385;29;20050;-83
2022/01/31 12:50:48;;;;;;;10.57;3.85;;;8.00;81.20;;;;;;4776705;30;20055;-82
2022/01/31 12:53:24;;;;;;;8.30;2.90;;;8.10;81.30;;;;;;4798245;29;20567;-83
2022/01/31 12:56:26;;;;;;;9.93;2.67;;;8.20;83.40;;;;;;4783457;30;20031;-84
2022/01/31 12:58:55;;;;;;;8.27;2.85;;;8.10;83.70;;;;;;4756964;30;20343;-83
2022/01/31 13:01:30;;;;;;;4.35;2.50;;;8.10;85.40;;;;;;4772278;30;20047;-83
2022/01/31 13:04:04;;;;;;;7.95;2.28;;;8.10;86.20;;;;;;4737342;30;20040;-84
2022/01/31 13:06:42;;;;;;;5.85;2.25;;;8.00;87.00;;;;;;4756513;30;20048;-83
2022/01/31 13:09:08;;;;;;;5.47;1.65;;;8.00;87.70;;;;;;4766412;30;20331;-83
2022/01/31 13:11:34;;;;;;;4.32;1.83;;;7.90;87.80;;;;;;4743592;30;20031;-83
2022/01/31 13:14:12;;;;;;;4.60;1.57;;;7.90;88.30;;;;;;4734980;30;20347;-82
2022/01/31 13:16:44;;;;;;;3.92;1.77;;;7.80;89.40;;;;;;4761368;30;20043;-82
2022/01/31 13:19:21;;;;;;;5.82;1.73;;;7.80;90.00;;;;;;4779186;30;20036;-82
2022/01/31 13:21:49;;;;;;;3.75;1.50;;;7.80;90.00;;;;;;4735002;30;20052;-83
2022/01/31 13:24:16;;;;;;;3.65;1.63;;;7.70;90.50;;;;;;4749505;30;20039;-82
2022/01/31 13:26:52;;;;;;;3.17;1.25;;;7.60;90.50;;;;;;4749263;30;20078;-82
2022/01/31 13:29:33;;;;;;;2.33;1.40;;;7.60;91.00;;;;;;4743604;30;20059;-83
2022/01/31 13:31:59;;;;;;;3.75;1.73;;;7.60;91.00;;;;;;4749182;30;20032;-82
2022/01/31 13:34:40;;;;;;;2.40;1.57;;;7.60;91.20;;;;;;4734558;30;20348;-83
2022/01/31 13:37:28;;;;;;;2.63;1.45;;;7.70;91.30;;;;;;4758145;30;20297;-82
2022/01/31 13:40:07;;;;;;;3.13;1.80;;;7.60;91.10;;;;;;4782928;30;20042;-82
2022/01/31 13:42:37;;;;;;;3.80;1.77;;;7.60;91.10;;;;;;4784846;30;20039;-82
2022/01/31 13:45:32;;;;;;;3.22;1.42;;;7.60;91.00;;;;;;4776758;30;20039;-82
2022/01/31 13:48:05;;;;;;;4.25;1.52;;;7.60;91.00;;;;;;4770933;30;20039;-82
2022/01/31 13:50:45;;;;;;;1.90;1.25;;;7.70;91.10;;;;;;4787996;30;20047;-83
2022/01/31 13:53:17;;;;;;;2.63;1.63;;;7.70;91.10;;;;;;4779961;30;20035;-83
2022/01/31 13:55:52;;;;;;;4.35;1.75;;;7.60;91.80;;;;;;4789440;30;20043;-83
2022/01/31 13:58:36;;;;;;;2.08;1.27;;;7.60;91.90;;;;;;4784801;30;20257;-83
2022/01/31 14:01:03;;;;;;;3.92;1.50;;;7.60;91.90;;;;;;4771970;30;20106;-83
2022/01/31 14:03:30;;;;;;;4.82;1.88;;;7.60;91.70;;;;;;4781184;30;20080;-82
2022/01/31 14:05:59;;;;;;;6.00;2.00;;;7.70;91.30;;;;;;4771295;30;20051;-83
2022/01/31 14:08:30;;;;;;;5.75;2.10;;;7.70;90.80;;;;;;4775839;30;20498;-83
2022/01/31 14:11:16;;;;;;;7.80;1.70;;;7.70;90.60;;;;;;4783528;30;20042;-84
2022/01/31 14:13:53;;;;;;;4.35;2.03;;;7.80;90.50;;;;;;4776626;30;20032;-83
2022/01/31 14:16:32;;;;;;;4.18;1.75;;;7.70;90.60;;;;;;4776203;30;20046;-83
2022/01/31 14:19:04;;;;;;;4.32;1.50;;;7.70;90.30;;;;;;4772632;30;20038;-83
2022/01/31 14:21:30;;;;;;;5.07;1.95;;;7.60;90.50;;;;;;4772930;30;20035;-83
2022/01/31 14:23:59;;;;;;;3.17;1.52;;;7.50;90.90;;;;;;4757104;30;20042;-83
2022/01/31 14:26:45;;;;;;;3.78;1.80;;;7.50;90.90;;;;;;4785898;30;20297;-83
2022/01/31 14:29:17;;;;;;;3.37;2.33;;;7.50;90.80;;;;;;4783320;30;20039;-83
2022/01/31 14:31:51;;;;;;;3.22;2.22;;;7.40;90.80;;;;;;4764422;30;20327;-83
2022/01/31 14:34:22;;;;;;;4.30;1.90;;;7.40;91.30;;;;;;4794785;30;20095;-83
2022/01/31 14:36:52;;;;;;;5.38;2.10;;;7.40;91.30;;;;;;4769984;30;20039;-84
2022/01/31 14:47:18;;;;;;;3.67;1.95;;;7.40;91.90;;;;;;4795460;30;20070;-84
2022/01/31 14:49:46;;;;;;;2.22;1.33;;;7.50;91.90;;;;;;4795902;30;20059;-84
2022/01/31 14:52:12;;;;;;;2.28;1.45;;;7.50;91.50;;;;;;4779963;30;20039;-83
2022/01/31 14:54:39;;;;;;;6.20;1.90;;;7.50;91.00;;;;;;4777836;30;20047;-83
2022/01/31 14:57:06;;;;;;;3.33;1.63;;;7.60;90.70;;;;;;4760934;30;20040;-83
2022/01/31 14:59:32;;;;;;;2.45;1.67;;;7.60;90.00;;;;;;4761669;30;20056;-83
2022/01/31 15:01:58;;;;;;;3.80;1.55;;;7.60;90.00;;;;;;4769055;30;20048;-83
2022/01/31 15:04:27;;;;;;;5.60;1.40;;;7.60;89.20;;;;;;4759481;30;20416;-83
2022/01/31 15:06:53;;;;;;;4.55;1.67;;;7.50;88.60;;;;;;4774433;30;20032;-82
2022/01/31 15:09:19;;;;;;;2.17;1.42;;;7.60;88.00;;;;;;4789707;30;20039;-83
2022/01/31 15:11:46;;;;;;;3.40;1.90;;;7.60;87.60;;;;;;4781367;30;20135;-83
2022/01/31 15:14:14;;;;;;;8.82;3.63;;;7.60;87.40;;;;;;4761333;30;20036;-82
2022/01/31 15:16:40;;;;;;;5.22;2.35;;;7.60;86.20;;;;;;4785462;30;20032;-84
2022/01/31 15:19:06;;;;;;;3.30;1.60;;;7.50;85.80;;;;;;4753947;30;20047;-83
2022/01/31 15:21:33;;;;;;;5.13;2.17;;;7.50;85.70;;;;;;4777940;30;20050;-83
2022/01/31 15:24:03;;;;;;;20.65;3.72;;;7.50;86.00;;;;;;4756632;30;20042;-84
2022/01/31 15:26:29;;;;;;;4.63;1.70;;;7.40;86.30;;;;;;4769532;30;20035;-83
2022/01/31 15:28:57;;;;;;;6.53;2.60;;;7.30;86.20;;;;;;4778385;30;20035;-83
2022/01/31 15:31:23;;;;;;;8.77;4.10;;;7.20;86.60;;;;;;4775375;30;20032;-83
2022/01/31 15:33:50;;;;;;;5.78;2.08;;;7.20;86.50;;;;;;4778755;30;20036;-83
2022/01/31 15:36:17;;;;;;;6.32;2.45;;;7.10;86.70;;;;;;4769343;30;20039;-83
2022/01/31 15:38:44;;;;;;;5.00;2.50;;;7.00;86.60;;;;;;4781537;30;20384;-82
2022/01/31 15:41:11;;;;;;;2.45;1.38;;;7.00;86.90;;;;;;4778860;30;20039;-83
2022/01/31 15:43:37;;;;;;;3.72;1.50;;;7.00;87.90;;;;;;4779737;30;20031;-83
2022/01/31 15:46:05;;;;;;;6.18;2.90;;;7.00;87.20;;;;;;4762478;30;20047;-83
2022/01/31 15:48:31;;;;;;;8.23;3.03;;;6.90;87.30;;;;;;4762832;30;20429;-82
2022/01/31 15:50:57;;;;;;;13.53;4.33;;;6.90;87.60;;;;;;4782057;30;20035;-82
2022/01/31 15:53:23;;;;;;;7.18;1.73;;;6.90;87.60;;;;;;4741114;30;20046;-82
2022/01/31 15:55:48;;;;;;;5.18;1.90;;;6.90;87.50;;;;;;4763801;30;20045;-82
2022/01/31 15:58:16;;;;;;;3.38;0.90;;;6.80;87.30;;;;;;4791031;30;20038;-82
2022/01/31 16:00:50;;;;;;;4.72;1.75;;;6.80;87.50;;;;;;4785687;30;20043;-82
2022/01/31 16:03:15;;;;;;;3.65;1.73;;;6.80;87.50;;;;;;4784731;30;20033;-82
2022/01/31 16:05:43;;;;;;;6.70;1.67;;;6.80;87.40;;;;;;4738202;30;20059;-83
2022/01/31 16:08:09;;;;;;;;;;;6.80;87.30;;;;;;4752895;30;20047;-82
2022/01/31 16:10:35;;;;;;;2.47;1.45;;;6.70;87.50;;;;;;4782455;30;19920;-82
2022/01/31 16:13:05;;;;;;;3.38;1.60;;;6.70;87.70;;;;;;4781995;30;20347;-82
2022/01/31 16:15:35;;;;;;;2.60;1.50;;;6.60;87.70;;;;;;4764746;30;20247;-82
2022/01/31 16:18:02;;;;;;;3.45;1.55;;;6.60;87.70;;;;;;4771595;30;20043;-82
2022/01/31 16:20:29;;;;;;;4.18;1.88;;;6.60;87.70;;;;;;4751720;30;20089;-82
2022/01/31 16:22:57;;;;;;;6.67;1.57;;;6.60;87.90;;;;;;4743442;30;20051;-82
2022/01/31 16:25:27;;;;;;;5.07;2.60;;;6.60;88.30;;;;;;4783202;30;20278;-82
2022/01/31 16:27:54;;;;;;;4.13;1.60;;;6.60;88.40;;;;;;4779902;30;20043;-82
2022/01/31 16:30:21;;;;;;;4.00;1.80;;;6.50;88.50;;;;;;4781065;30;20031;-82
2022/01/31 16:32:48;;;;;;;5.53;1.88;;;6.50;88.30;;;;;;4787853;30;20204;-83
2022/01/31 16:35:15;;;;;;;5.00;1.98;;;6.50;88.40;;;;;;4754894;30;20044;-82
2022/01/31 16:37:43;;;;;;;6.47;1.98;;;6.50;88.40;;;;;;4756838;30;20307;-82
2022/01/31 16:40:10;;;;;;;5.07;1.88;;;6.50;89.10;;;;;;4788391;30;20096;-82
2022/01/31 16:42:36;;;;;;;;;;;6.50;88.50;;;;;;4760387;30;20039;-81
2022/01/31 16:45:04;;;;;;;3.83;1.73;;;6.50;88.70;;;;;;4792433;30;19917;-81
2022/01/31 16:47:30;;;;;;;5.70;2.47;;;6.40;88.50;;;;;;4786246;30;20124;-81
2022/01/31 16:49:56;;;;;;;4.93;1.90;;;6.50;88.40;;;;;;4765029;30;20278;-82
2022/01/31 16:52:23;;;;;;;6.03;1.98;;;6.50;88.40;;;;;;4777940;30;20047;-81
2022/01/31 16:54:50;;;;;;;3.85;1.45;;;6.40;88.50;;;;;;4770547;30;20224;-82
2022/01/31 16:57:16;;;;;;;4.75;1.40;;;6.40;88.60;;;;;;4786692;30;20080;-81
2022/01/31 16:59:43;;;;;;;5.78;1.52;;;6.40;88.70;;;;;;4747992;30;20256;-81
2022/01/31 17:02:11;;;;;;;6.80;1.83;;;6.40;89.10;;;;;;4777050;30;20055;-81
2022/01/31 17:04:41;;;;;;;2.72;1.20;;;6.30;89.30;;;;;;4759110;30;20040;-82
2022/01/31 17:07:08;;;;;;;6.28;1.65;;;6.30;89.90;;;;;;4770979;30;20357;-82
2022/01/31 17:09:35;;;;;;;9.68;2.00;;;6.40;89.90;;;;;;4778307;30;20061;-81
2022/01/31 17:12:01;;;;;;;3.78;1.88;;;6.40;90.10;;;;;;4783912;30;20125;-82
2022/01/31 17:14:28;;;;;;;5.63;1.90;;;6.30;90.30;;;;;;4766434;30;20051;-82
2022/01/31 17:16:53;;;;;;;5.43;1.50;;;6.30;90.40;;;;;;4759070;30;20046;-82
2022/01/31 17:19:19;;;;;;;2.85;1.30;;;6.40;90.50;;;;;;4756871;30;20317;-82
2022/01/31 17:21:45;;;;;;;4.35;1.67;;;6.30;90.70;;;;;;4776208;30;20044;-82
2022/01/31 17:24:12;;;;;;;3.28;1.50;;;6.40;90.80;;;;;;4755303;30;20040;-82
2022/01/31 17:26:40;;;;;;;1.58;1.10;;;6.40;90.80;;;;;;4772626;30;20081;-81
2022/01/31 17:29:07;;;;;;;3.53;1.80;;;6.40;90.70;;;;;;4759408;30;20130;-81
2022/01/31 17:31:34;;;;;;;2.10;1.27;;;6.50;90.70;;;;;;4775032;30;20043;-82
2022/01/31 17:34:00;;;;;;;2.33;1.27;;;6.50;90.90;;;;;;4784683;30;20372;-82